Gloverville, SC (29828)

5:17 PM EDT on July 23, 2016 (GMT -0400)
Water's Edge | | Change Station

Elev 364 ft 33.50 °N, 81.76 °W | Updated 1 minute ago

Scattered Clouds
Scattered Clouds
94.7 °F
Feels Like 115 °F
N
3.0
Wind Variable Wind from ESE
Gusts 5.0 mph

Today
High -- | Low -- °F
--% Chance of Precip.
Yesterday
High -- | Low -- °F
Precip. -- in
Pressure 30.01 in
Visibility 10.0 miles
Clouds Scattered Clouds 6000 ft
Scattered Clouds 7000 ft
Heat Index 115 °F
Dew Point 80 °F
Humidity 63%
Rainfall 0.00 in
Snow Depth Not available.
6:33 AM 8:33 PM
Waning Gibbous, 82% visible
METAR KAIK 232055Z AUTO 00000KT 10SM SCT060 SCT070 31/22 A3001 RMK AO2
Pressure 30.01 in
Visibility 10.0 miles
Clouds Scattered Clouds 6000 ft
Scattered Clouds 7000 ft
Heat Index 115 °F
Dew Point 80 °F
Humidity 63%
Rainfall 0.00 in
Snow Depth Not available.
6:33 AM 8:33 PM
Waning Gibbous, 82% visible
METAR KAIK 232055Z AUTO 00000KT 10SM SCT060 SCT070 31/22 A3001 RMK AO2

10-Day Weather Forecast

Almanac

Astronomy

Jul. 23, 2016 Rise Set
Actual Time
Civil Twilight
Nautical Twilight
Astronomical Twilight
Moon
Length of Visible Light
Length of Day
Tomorrow will be .
, % of the Moon is Illuminated

Today's Extremes

State Highs State Lows

Community

WunderPhotos

Upload Photos

1,926,927 photos uploaded!

WunderBlog® & News

Nearby

Air Quality

  Air Quality AQ Index Pollutant
Not available.

Snow Depth

Station Depth Elevation

Earthquake Activity

City Distance Mag. Time & Date
Minimum magnitude displayed is 2.5.

Coastal Water Temperatures

Place Temperature

Stations

Nearby Weather Stations

Station Location Temp. Windchill Dew Point Humidity Wind Precip. Elev Updated Type
                   

Watches & Warnings

There are currently no watches in effect.